createdAt,value
2023-03-17T00:00:19.705Z,2.77
2023-03-17T00:02:49.041Z,2.57
2023-03-17T00:05:25.522Z,2.40
2023-03-17T00:07:55.395Z,2.67
2023-03-17T00:10:27.096Z,2.40
2023-03-17T00:12:55.364Z,3.00
2023-03-17T00:15:24.069Z,2.23
2023-03-17T00:17:50.997Z,2.83
2023-03-17T00:20:28.540Z,2.80
2023-03-17T00:22:58.674Z,2.50
2023-03-17T00:25:30.936Z,2.33
2023-03-17T00:28:00.546Z,4.63
2023-03-17T00:30:28.910Z,2.77
2023-03-17T00:32:58.574Z,2.70
2023-03-17T00:35:28.515Z,2.47
2023-03-17T00:37:57.737Z,2.87
2023-03-17T00:40:29.632Z,2.40
2023-03-17T00:43:00.021Z,2.60
2023-03-17T00:45:27.297Z,2.20
2023-03-17T00:47:58.374Z,2.53
2023-03-17T00:50:27.964Z,2.60
2023-03-17T00:52:57.983Z,2.50
2023-03-17T00:55:26.735Z,1.97
2023-03-17T00:57:54.813Z,2.27
2023-03-17T01:00:26.526Z,2.23
2023-03-17T01:02:56.104Z,2.37
2023-03-17T01:05:25.769Z,2.57
2023-03-17T01:07:59.126Z,2.27
2023-03-17T01:10:28.780Z,2.17
2023-03-17T01:12:58.063Z,2.00
2023-03-17T01:15:29.128Z,2.30
2023-03-17T01:17:57.271Z,2.00
2023-03-17T01:20:28.367Z,2.10
2023-03-17T01:22:56.014Z,2.27
2023-03-17T01:25:24.070Z,2.50
2023-03-17T01:27:51.602Z,2.50
2023-03-17T01:30:27.667Z,2.23
2023-03-17T01:32:56.567Z,2.23
2023-03-17T01:35:25.822Z,2.20
2023-03-17T01:37:53.474Z,2.20
2023-03-17T01:40:28.132Z,2.20
2023-03-17T01:43:08.564Z,2.70
2023-03-17T01:46:13.589Z,1.97
2023-03-17T01:48:55.725Z,2.10
2023-03-17T01:51:46.748Z,2.23
2023-03-17T01:54:30.849Z,2.40
2023-03-17T01:57:03.939Z,2.37
2023-03-17T01:59:35.089Z,1.90
2023-03-17T02:02:08.758Z,2.07
2023-03-17T02:04:36.966Z,2.30
2023-03-17T02:07:05.149Z,2.37
2023-03-17T02:09:37.285Z,1.87
2023-03-17T02:12:05.518Z,2.10
2023-03-17T02:14:32.807Z,2.03
2023-03-17T02:16:59.845Z,1.73
2023-03-17T02:19:26.830Z,2.20
2023-03-17T02:21:58.744Z,1.90
2023-03-17T02:24:34.740Z,1.80
2023-03-17T02:27:16.119Z,2.20
2023-03-17T02:29:46.448Z,2.27
2023-03-17T02:32:17.919Z,2.37
2023-03-17T02:34:47.190Z,2.10
2023-03-17T02:37:15.172Z,2.20
2023-03-17T02:39:42.659Z,2.33
2023-03-17T02:42:10.541Z,1.70
2023-03-17T02:44:37.759Z,2.20
2023-03-17T02:47:05.533Z,2.30
2023-03-17T02:49:34.323Z,2.30
2023-03-17T02:52:01.665Z,2.13
2023-03-17T02:54:28.658Z,2.20
2023-03-17T02:56:56.592Z,2.07
2023-03-17T02:59:23.623Z,2.00
2023-03-17T03:01:50.979Z,2.40
2023-03-17T03:04:20.207Z,2.60
2023-03-17T03:06:47.735Z,2.10
2023-03-17T03:09:15.494Z,2.33
2023-03-17T03:11:43.063Z,2.23
2023-03-17T03:14:11.148Z,2.27
2023-03-17T03:16:38.478Z,2.47
2023-03-17T03:19:06.474Z,2.00
2023-03-17T03:21:33.801Z,2.23
2023-03-17T03:24:00.814Z,2.10
2023-03-17T03:26:28.519Z,1.93
2023-03-17T03:28:57.396Z,2.33
2023-03-17T03:31:25.079Z,2.50
2023-03-17T03:33:52.571Z,2.20
2023-03-17T03:36:19.688Z,2.60
2023-03-17T03:38:46.685Z,2.40
2023-03-17T03:41:14.376Z,2.27
2023-03-17T03:43:41.473Z,2.30
2023-03-17T03:46:09.158Z,2.20
2023-03-17T03:48:37.536Z,2.30
2023-03-17T03:51:04.515Z,2.57
2023-03-17T03:53:31.428Z,2.33
2023-03-17T03:55:58.529Z,2.47
2023-03-17T03:58:25.841Z,2.30
2023-03-17T04:00:52.789Z,2.40
2023-03-17T04:03:19.849Z,2.10
2023-03-17T04:05:47.485Z,2.03
2023-03-17T04:08:14.475Z,2.57
2023-03-17T04:10:42.060Z,1.63
2023-03-17T04:13:08.918Z,2.53
2023-03-17T04:15:38.817Z,2.17
2023-03-17T04:18:05.839Z,2.27
2023-03-17T04:20:33.230Z,2.10
2023-03-17T04:23:00.400Z,2.23
2023-03-17T04:25:27.712Z,1.97
2023-03-17T04:27:54.626Z,2.00
2023-03-17T04:30:21.448Z,2.10
2023-03-17T04:32:49.281Z,2.40
2023-03-17T04:35:19.501Z,2.60
2023-03-17T04:37:46.617Z,2.37
2023-03-17T04:40:14.581Z,2.40
2023-03-17T04:42:42.028Z,2.20
2023-03-17T04:45:11.566Z,2.20
2023-03-17T04:47:39.555Z,2.13
2023-03-17T04:50:09.038Z,2.03
2023-03-17T04:52:37.079Z,2.20
2023-03-17T04:55:06.436Z,2.00
2023-03-17T04:57:33.266Z,2.40
2023-03-17T05:00:00.400Z,2.30
2023-03-17T05:02:28.292Z,2.20
2023-03-17T05:04:55.547Z,2.83
2023-03-17T05:07:22.469Z,2.10
2023-03-17T05:09:49.415Z,2.27
2023-03-17T05:12:16.560Z,2.33
2023-03-17T05:14:43.476Z,2.20
2023-03-17T05:17:11.158Z,2.40
2023-03-17T05:19:38.176Z,2.40
2023-03-17T05:22:05.877Z,2.20
2023-03-17T05:24:33.066Z,2.57
2023-03-17T05:26:59.929Z,2.23
2023-03-17T05:29:27.006Z,2.20
2023-03-17T05:31:54.315Z,2.23
2023-03-17T05:34:21.180Z,2.10
2023-03-17T05:36:48.070Z,1.90
2023-03-17T05:39:15.092Z,1.90
2023-03-17T05:41:42.396Z,2.10
2023-03-17T05:44:09.300Z,2.07
2023-03-17T05:46:36.598Z,2.47
2023-03-17T05:49:03.847Z,2.40
2023-03-17T05:51:30.785Z,2.53
2023-03-17T05:53:57.689Z,3.50
2023-03-17T05:56:26.398Z,2.50
2023-03-17T05:58:53.392Z,2.30
2023-03-17T06:01:21.187Z,2.00
2023-03-17T06:03:48.399Z,2.10
2023-03-17T06:06:16.424Z,2.07
2023-03-17T06:08:43.488Z,2.17
2023-03-17T06:11:10.703Z,2.33
2023-03-17T06:13:37.802Z,2.60
2023-03-17T06:16:05.006Z,2.33
2023-03-17T06:18:32.121Z,2.50
2023-03-17T06:20:59.207Z,2.60
2023-03-17T06:23:26.156Z,2.40
2023-03-17T06:25:53.056Z,2.50
2023-03-17T06:28:20.240Z,2.20
2023-03-17T06:30:47.379Z,2.17
2023-03-17T06:33:14.728Z,2.20
2023-03-17T06:35:41.791Z,2.40
2023-03-17T06:38:09.027Z,2.50
2023-03-17T06:40:36.346Z,2.53
2023-03-17T06:43:03.602Z,2.23
2023-03-17T06:45:33.073Z,2.40
2023-03-17T06:48:00.406Z,2.20
2023-03-17T06:50:27.633Z,2.27
2023-03-17T06:52:55.049Z,2.90
2023-03-17T06:55:22.179Z,3.23
2023-03-17T06:57:51.101Z,2.83
2023-03-17T07:00:19.713Z,3.20
2023-03-17T07:02:47.961Z,3.53
2023-03-17T07:05:15.441Z,3.67
2023-03-17T07:07:42.667Z,2.80
2023-03-17T07:10:10.466Z,2.97
2023-03-17T07:12:37.762Z,2.60
2023-03-17T07:15:05.671Z,3.27
2023-03-17T07:17:33.715Z,3.03
2023-03-17T07:20:00.875Z,2.77
2023-03-17T07:22:27.946Z,2.67
2023-03-17T07:24:55.316Z,2.33
2023-03-17T07:27:25.310Z,2.00
2023-03-17T07:29:52.986Z,2.40
2023-03-17T07:32:20.173Z,1.80
2023-03-17T07:34:47.116Z,2.33
2023-03-17T07:37:14.394Z,2.30
2023-03-17T07:39:42.017Z,2.17
2023-03-17T07:42:12.168Z,2.07
2023-03-17T07:44:41.663Z,2.07
2023-03-17T07:47:10.770Z,2.33
2023-03-17T07:49:41.547Z,2.93
2023-03-17T07:52:10.941Z,2.23
2023-03-17T07:54:37.879Z,1.70
2023-03-17T07:57:06.385Z,2.10
2023-03-17T07:59:33.792Z,2.20
2023-03-17T08:02:01.722Z,2.27
2023-03-17T08:04:29.345Z,2.07
2023-03-17T08:06:57.652Z,2.17
2023-03-17T08:09:25.357Z,2.60
2023-03-17T08:11:52.767Z,2.03
2023-03-17T08:14:20.100Z,2.00
2023-03-17T08:16:47.384Z,1.90
2023-03-17T08:19:14.378Z,1.80
2023-03-17T08:21:41.495Z,2.27
2023-03-17T08:24:08.638Z,2.33
2023-03-17T08:26:36.250Z,2.50
2023-03-17T08:29:05.182Z,2.43
2023-03-17T08:31:34.004Z,2.87
2023-03-17T08:34:02.919Z,2.20
2023-03-17T08:36:30.438Z,2.10
2023-03-17T08:38:57.723Z,2.20
2023-03-17T08:41:28.178Z,2.57
2023-03-17T08:43:56.287Z,2.70
2023-03-17T08:46:27.117Z,2.70
2023-03-17T08:48:56.443Z,2.90
2023-03-17T08:51:28.687Z,3.13
2023-03-17T08:53:56.036Z,3.23
2023-03-17T08:56:23.391Z,3.50
2023-03-17T08:58:52.007Z,3.90
2023-03-17T09:01:20.946Z,4.27
2023-03-17T09:03:48.660Z,4.43
2023-03-17T09:06:15.915Z,4.17
2023-03-17T09:08:47.779Z,4.37
2023-03-17T09:11:18.096Z,4.00
2023-03-17T09:13:46.579Z,4.63
2023-03-17T09:16:14.810Z,4.50
2023-03-17T09:18:42.587Z,4.20
2023-03-17T09:21:11.974Z,4.63
2023-03-17T09:23:41.590Z,4.50
2023-03-17T09:26:09.182Z,4.10
2023-03-17T09:28:36.208Z,3.20
2023-03-17T09:31:06.271Z,3.47
2023-03-17T09:33:33.435Z,2.60
2023-03-17T09:36:00.740Z,2.47
2023-03-17T09:38:27.999Z,2.73
2023-03-17T09:41:00.140Z,2.00
2023-03-17T09:44:01.261Z,2.10
2023-03-17T09:46:33.980Z,2.20
2023-03-17T09:49:09.425Z,2.33
2023-03-17T09:51:36.841Z,2.20
2023-03-17T09:54:10.479Z,2.47
2023-03-17T09:56:41.001Z,2.37
2023-03-17T09:59:23.658Z,2.37
2023-03-17T10:01:50.684Z,2.47
2023-03-17T10:04:19.008Z,2.17
2023-03-17T10:06:47.485Z,2.20
2023-03-17T10:09:30.083Z,2.13
2023-03-17T10:12:11.042Z,2.50
2023-03-17T10:14:42.192Z,2.40
2023-03-17T10:17:18.861Z,2.50
2023-03-17T10:19:58.383Z,2.70
2023-03-17T10:22:44.776Z,2.60
2023-03-17T10:25:21.564Z,2.73
2023-03-17T10:27:59.753Z,2.40
2023-03-17T10:30:27.541Z,2.67
2023-03-17T10:32:58.897Z,2.90
2023-03-17T10:35:26.296Z,3.93
2023-03-17T10:38:07.943Z,4.30
2023-03-17T10:40:38.800Z,3.57
2023-03-17T10:43:10.544Z,5.30
2023-03-17T10:45:44.013Z,4.07
2023-03-17T10:48:19.056Z,3.17
2023-03-17T10:50:48.650Z,3.00
2023-03-17T10:53:30.371Z,2.90
2023-03-17T10:56:06.914Z,3.43
2023-03-17T10:58:43.638Z,3.33
2023-03-17T11:01:20.333Z,2.93
2023-03-17T11:03:48.797Z,3.37
2023-03-17T11:06:19.204Z,3.47
2023-03-17T11:08:56.019Z,3.40
2023-03-17T11:11:31.957Z,5.13
2023-03-17T11:14:13.586Z,3.90
2023-03-17T11:16:53.381Z,3.63
2023-03-17T11:19:44.347Z,3.63
2023-03-17T11:22:26.999Z,2.80
2023-03-17T11:24:59.720Z,3.30
2023-03-17T11:27:49.389Z,3.87
2023-03-17T11:30:19.133Z,3.40
2023-03-17T11:32:56.623Z,3.40
2023-03-17T11:35:58.643Z,3.83
2023-03-17T11:38:37.964Z,3.70
2023-03-17T11:41:09.200Z,3.70
2023-03-17T11:44:18.469Z,3.77
2023-03-17T11:47:31.995Z,4.07
2023-03-17T11:50:23.661Z,4.07
2023-03-17T11:52:59.456Z,3.40
2023-03-17T11:55:49.024Z,3.43
2023-03-17T11:58:42.717Z,3.80
2023-03-17T12:01:18.076Z,3.83
2023-03-17T12:03:52.033Z,4.97
2023-03-17T12:06:32.784Z,4.27
2023-03-17T12:09:07.972Z,4.47
2023-03-17T12:11:40.065Z,3.30
2023-03-17T12:14:19.112Z,3.90
2023-03-17T12:17:13.062Z,3.43
2023-03-17T12:19:45.974Z,3.80
2023-03-17T12:22:26.346Z,3.70
2023-03-17T12:25:02.367Z,3.40
2023-03-17T12:27:34.262Z,3.97
2023-03-17T12:30:05.351Z,3.47
2023-03-17T12:32:35.048Z,4.37
2023-03-17T12:35:26.499Z,3.80
2023-03-17T12:37:55.111Z,4.10
2023-03-17T12:40:40.950Z,3.80
2023-03-17T12:43:37.175Z,4.17
2023-03-17T12:46:30.135Z,4.27
2023-03-17T12:49:27.118Z,3.67
2023-03-17T12:52:15.555Z,3.83
2023-03-17T12:54:48.653Z,3.53
2023-03-17T12:57:19.807Z,3.70
2023-03-17T12:59:49.577Z,3.53
2023-03-17T13:02:30.313Z,3.83
2023-03-17T13:05:03.055Z,3.77
2023-03-17T13:07:49.230Z,3.53
2023-03-17T13:10:21.253Z,3.63
2023-03-17T13:12:48.190Z,4.30
2023-03-17T13:15:49.687Z,3.63
2023-03-17T13:18:16.896Z,4.10
2023-03-17T13:21:10.448Z,3.87
2023-03-17T13:24:01.515Z,3.60
2023-03-17T13:27:10.369Z,3.90
2023-03-17T13:29:42.089Z,3.83
2023-03-17T13:32:27.456Z,4.17
2023-03-17T13:35:16.578Z,3.70
2023-03-17T13:38:07.094Z,3.97
2023-03-17T13:41:00.971Z,3.87
2023-03-17T13:43:56.247Z,4.80
2023-03-17T13:46:31.920Z,3.87
2023-03-17T13:49:04.349Z,4.23
2023-03-17T13:51:34.059Z,4.20
2023-03-17T13:54:28.248Z,4.20
2023-03-17T13:56:59.793Z,4.07
2023-03-17T13:59:39.127Z,4.20
2023-03-17T14:02:20.032Z,4.27
2023-03-17T14:05:19.173Z,3.97
2023-03-17T14:08:01.857Z,4.07
2023-03-17T14:10:32.098Z,4.33
2023-03-17T14:13:20.689Z,4.10
2023-03-17T14:16:16.753Z,3.67
2023-03-17T14:18:51.685Z,4.00
2023-03-17T14:21:33.315Z,4.33
2023-03-17T14:24:04.424Z,4.63
2023-03-17T14:26:32.703Z,4.30
2023-03-17T14:29:01.179Z,4.17
2023-03-17T14:31:29.888Z,4.40
2023-03-17T14:33:59.990Z,4.10
2023-03-17T14:36:33.676Z,4.07
2023-03-17T14:39:00.658Z,4.77
2023-03-17T14:41:28.687Z,4.27
2023-03-17T14:44:00.048Z,4.47
2023-03-17T14:46:38.896Z,4.07
2023-03-17T14:49:18.827Z,4.13
2023-03-17T14:51:50.098Z,4.57
2023-03-17T14:54:22.594Z,4.30
2023-03-17T14:56:55.669Z,4.10
2023-03-17T14:59:34.212Z,4.60
2023-03-17T15:02:15.848Z,4.40
2023-03-17T15:04:56.064Z,4.80
2023-03-17T15:07:31.577Z,4.47
2023-03-17T15:10:03.939Z,5.63
2023-03-17T15:12:31.828Z,4.37
2023-03-17T15:15:02.566Z,4.70
2023-03-17T15:17:37.629Z,4.47
2023-03-17T15:20:13.600Z,4.93
2023-03-17T15:22:48.535Z,5.17
2023-03-17T15:25:20.893Z,5.20
2023-03-17T15:27:48.452Z,5.23
2023-03-17T15:30:16.680Z,5.03
2023-03-17T15:32:44.625Z,4.97
2023-03-17T15:35:13.409Z,4.60
2023-03-17T15:37:41.707Z,4.70
2023-03-17T15:40:10.450Z,5.43
2023-03-17T15:42:39.655Z,5.23
2023-03-17T15:45:07.997Z,5.13
2023-03-17T15:47:39.890Z,4.87
2023-03-17T15:50:36.756Z,5.37
2023-03-17T15:53:03.968Z,5.40
2023-03-17T15:55:31.473Z,5.87
2023-03-17T15:57:59.024Z,5.47
2023-03-17T16:00:30.034Z,5.73
2023-03-17T16:03:02.263Z,5.23
2023-03-17T16:05:34.435Z,5.47
2023-03-17T16:08:01.568Z,4.90
2023-03-17T16:10:32.079Z,4.90
2023-03-17T16:12:59.456Z,5.67
2023-03-17T16:15:30.954Z,5.23
2023-03-17T16:18:00.847Z,4.93
2023-03-17T16:20:38.250Z,6.00
2023-03-17T16:23:15.588Z,5.40
2023-03-17T16:25:43.569Z,5.10
2023-03-17T16:28:31.428Z,5.73
2023-03-17T16:31:00.877Z,5.47
2023-03-17T16:33:39.961Z,5.30
2023-03-17T16:36:07.335Z,5.40
2023-03-17T16:38:34.669Z,5.33
2023-03-17T16:41:07.556Z,5.43
2023-03-17T16:43:37.998Z,6.70
2023-03-17T16:46:06.914Z,5.10
2023-03-17T16:48:34.586Z,5.63
2023-03-17T16:51:01.709Z,5.23
2023-03-17T16:53:28.611Z,6.13
2023-03-17T16:55:58.135Z,6.00
2023-03-17T16:58:32.682Z,5.13
2023-03-17T17:01:02.903Z,5.00
2023-03-17T17:03:31.409Z,5.83
2023-03-17T17:05:58.387Z,6.93
2023-03-17T17:08:25.488Z,7.10
2023-03-17T17:10:52.736Z,6.33
2023-03-17T17:13:19.734Z,6.87
2023-03-17T17:15:47.315Z,6.77
2023-03-17T17:18:22.372Z,6.47
2023-03-17T17:20:49.599Z,6.13
2023-03-17T17:23:19.186Z,6.47
2023-03-17T17:25:46.798Z,5.47
2023-03-17T17:28:15.788Z,5.80
2023-03-17T17:30:45.301Z,5.33
2023-03-17T17:33:12.990Z,5.60
2023-03-17T17:35:40.393Z,5.87
2023-03-17T17:38:32.820Z,5.47
2023-03-17T17:41:05.757Z,5.87
2023-03-17T17:43:33.355Z,5.97
2023-03-17T17:46:04.080Z,7.07
2023-03-17T17:48:30.958Z,6.63
2023-03-17T17:50:58.402Z,6.77
2023-03-17T17:53:25.926Z,6.50
2023-03-17T17:55:53.021Z,7.00
2023-03-17T17:58:24.082Z,6.73
2023-03-17T18:00:53.987Z,7.43
2023-03-17T18:03:25.318Z,8.23
2023-03-17T18:05:54.696Z,9.10
2023-03-17T18:08:23.157Z,10.30
2023-03-17T18:10:52.009Z,10.60
2023-03-17T18:13:21.932Z,10.83
2023-03-17T18:15:49.021Z,10.57
2023-03-17T18:18:16.057Z,9.50
2023-03-17T18:20:46.159Z,10.07
2023-03-17T18:23:13.273Z,10.10
2023-03-17T18:25:40.213Z,9.07
2023-03-17T18:28:08.198Z,10.00
2023-03-17T18:30:36.354Z,10.60
2023-03-17T18:33:09.336Z,10.13
2023-03-17T18:35:36.626Z,10.63
2023-03-17T18:38:03.762Z,9.83
2023-03-17T18:40:33.863Z,7.80
2023-03-17T18:43:01.677Z,7.90
2023-03-17T18:45:31.271Z,7.67
2023-03-17T18:47:58.241Z,7.30
2023-03-17T18:50:25.323Z,7.77
2023-03-17T18:52:52.937Z,8.37
2023-03-17T18:55:20.982Z,9.07
2023-03-17T18:57:48.022Z,8.03
2023-03-17T19:00:18.759Z,8.97
2023-03-17T19:02:46.582Z,8.63
2023-03-17T19:05:14.385Z,8.77
2023-03-17T19:07:41.918Z,10.10
2023-03-17T19:10:11.017Z,11.63
2023-03-17T19:12:38.460Z,10.90
2023-03-17T19:15:07.573Z,10.23
2023-03-17T19:17:35.558Z,9.80
2023-03-17T19:20:02.659Z,9.17
2023-03-17T19:22:29.712Z,8.77
2023-03-17T19:24:57.074Z,9.30
2023-03-17T19:27:25.803Z,9.63
2023-03-17T19:29:52.723Z,9.27
2023-03-17T19:32:19.690Z,9.67
2023-03-17T19:34:48.863Z,10.40
2023-03-17T19:37:15.783Z,9.77
2023-03-17T19:39:44.963Z,10.37
2023-03-17T19:42:12.632Z,9.70
2023-03-17T19:44:40.017Z,9.47
2023-03-17T19:47:08.544Z,8.83
2023-03-17T19:49:37.402Z,9.33
2023-03-17T19:52:06.805Z,9.53
2023-03-17T19:54:44.747Z,8.73
2023-03-17T19:57:17.050Z,8.07
2023-03-17T19:59:44.085Z,8.57
2023-03-17T20:02:14.408Z,8.33
2023-03-17T20:04:41.537Z,8.20
2023-03-17T20:07:09.629Z,7.33
2023-03-17T20:09:38.231Z,8.07
2023-03-17T20:12:05.931Z,8.80
2023-03-17T20:14:32.859Z,9.23
2023-03-17T20:17:02.675Z,8.63
2023-03-17T20:19:29.598Z,7.60
2023-03-17T20:21:59.146Z,7.80
2023-03-17T20:24:27.231Z,8.07
2023-03-17T20:26:56.285Z,7.87
2023-03-17T20:29:23.693Z,7.93
2023-03-17T20:31:50.844Z,8.13
2023-03-17T20:34:17.806Z,8.77
2023-03-17T20:36:44.861Z,8.80
2023-03-17T20:39:14.952Z,8.00
2023-03-17T20:41:41.967Z,8.50
2023-03-17T20:44:09.151Z,9.37
2023-03-17T20:46:38.677Z,8.63
2023-03-17T20:49:06.362Z,8.53
2023-03-17T20:51:34.014Z,8.60
2023-03-17T20:54:01.608Z,8.63
2023-03-17T20:56:33.890Z,8.87
2023-03-17T20:59:05.190Z,10.83
2023-03-17T21:01:36.442Z,11.10
2023-03-17T21:04:09.219Z,11.13
2023-03-17T21:06:37.108Z,10.37
2023-03-17T21:09:05.043Z,11.00
2023-03-17T21:11:32.108Z,11.07
2023-03-17T21:13:59.192Z,10.20
2023-03-17T21:16:28.518Z,9.33
2023-03-17T21:18:59.119Z,9.53
2023-03-17T21:21:27.337Z,9.00
2023-03-17T21:23:55.009Z,8.87
2023-03-17T21:26:22.418Z,8.47
2023-03-17T21:28:49.315Z,9.20
2023-03-17T21:31:17.306Z,8.87
2023-03-17T21:33:45.002Z,9.33
2023-03-17T21:36:11.947Z,8.37
2023-03-17T21:38:38.956Z,8.40
2023-03-17T21:41:23.864Z,9.27
2023-03-17T21:43:50.948Z,8.80
2023-03-17T21:46:17.981Z,9.27
2023-03-17T21:48:45.056Z,9.80
2023-03-17T21:51:12.369Z,8.70
2023-03-17T21:53:39.325Z,8.77
2023-03-17T21:56:06.589Z,8.50
2023-03-17T21:58:36.016Z,8.50
2023-03-17T22:01:03.154Z,8.50
2023-03-17T22:03:30.398Z,8.10
2023-03-17T22:05:57.268Z,8.73
2023-03-17T22:08:34.742Z,8.50
2023-03-17T22:11:10.853Z,7.77
2023-03-17T22:13:38.135Z,8.40
2023-03-17T22:16:05.352Z,8.43
2023-03-17T22:18:32.760Z,8.50
2023-03-17T22:21:00.467Z,8.27
2023-03-17T22:23:30.121Z,9.03
2023-03-17T22:25:57.771Z,8.80
2023-03-17T22:28:25.261Z,8.37
2023-03-17T22:30:52.208Z,7.80
2023-03-17T22:33:19.222Z,7.57
2023-03-17T22:35:46.994Z,7.90
2023-03-17T22:38:14.081Z,8.17
2023-03-17T22:40:41.462Z,8.60
2023-03-17T22:43:08.501Z,8.43
2023-03-17T22:45:35.443Z,7.97
2023-03-17T22:48:02.381Z,9.00
2023-03-17T22:50:29.636Z,8.30
2023-03-17T22:52:57.007Z,8.43
2023-03-17T22:55:24.400Z,9.27
2023-03-17T22:57:51.675Z,8.40
2023-03-17T23:00:19.027Z,8.17
2023-03-17T23:02:46.641Z,8.53
2023-03-17T23:05:17.493Z,8.67
2023-03-17T23:07:50.808Z,7.50
2023-03-17T23:10:24.869Z,7.77
2023-03-17T23:12:52.325Z,8.10
2023-03-17T23:15:20.114Z,8.33
2023-03-17T23:17:49.784Z,9.03
2023-03-17T23:20:17.379Z,8.27
2023-03-17T23:22:44.441Z,8.03
2023-03-17T23:25:13.851Z,8.60
2023-03-17T23:27:41.427Z,8.67
2023-03-17T23:30:11.591Z,8.00
2023-03-17T23:32:40.903Z,8.63
2023-03-17T23:35:09.555Z,8.07
2023-03-17T23:37:37.395Z,8.57
2023-03-17T23:40:06.538Z,7.87
2023-03-17T23:42:33.581Z,7.97
2023-03-17T23:45:00.728Z,8.53
2023-03-17T23:47:28.353Z,8.73
2023-03-17T23:49:55.618Z,8.13
2023-03-17T23:52:22.813Z,7.57
2023-03-17T23:54:50.081Z,7.77
2023-03-17T23:57:17.276Z,8.40
2023-03-17T23:59:44.304Z,8.30
